sensor_id;sensor_type;location;lat;lon;timestamp;temperature;humidity
40085;DHT22;25786;51.504;7.344;2023-04-06T00:00:58;3.30;69.20
40085;DHT22;25786;51.504;7.344;2023-04-06T00:03:24;3.10;70.30
40085;DHT22;25786;51.504;7.344;2023-04-06T00:05:50;3.20;70.60
40085;DHT22;25786;51.504;7.344;2023-04-06T00:08:15;3.10;71.20
40085;DHT22;25786;51.504;7.344;2023-04-06T00:10:41;3.10;70.80
40085;DHT22;25786;51.504;7.344;2023-04-06T00:13:06;3.20;71.10
40085;DHT22;25786;51.504;7.344;2023-04-06T00:15:33;3.10;70.70
40085;DHT22;25786;51.504;7.344;2023-04-06T00:17:59;3.20;70.80
40085;DHT22;25786;51.504;7.344;2023-04-06T00:20:24;3.20;70.40
40085;DHT22;25786;51.504;7.344;2023-04-06T00:22:50;3.20;70.20
40085;DHT22;25786;51.504;7.344;2023-04-06T00:25:16;3.20;70.30
40085;DHT22;25786;51.504;7.344;2023-04-06T00:27:41;3.10;69.40
40085;DHT22;25786;51.504;7.344;2023-04-06T00:30:07;3.20;69.80
40085;DHT22;25786;51.504;7.344;2023-04-06T00:32:33;3.00;70.20
40085;DHT22;25786;51.504;7.344;2023-04-06T00:34:59;3.00;71.00
40085;DHT22;25786;51.504;7.344;2023-04-06T00:37:24;2.90;71.30
40085;DHT22;25786;51.504;7.344;2023-04-06T00:39:50;2.90;71.70
40085;DHT22;25786;51.504;7.344;2023-04-06T00:42:16;2.90;71.30
40085;DHT22;25786;51.504;7.344;2023-04-06T00:44:43;2.80;71.80
40085;DHT22;25786;51.504;7.344;2023-04-06T00:47:09;2.80;71.60
40085;DHT22;25786;51.504;7.344;2023-04-06T00:49:34;2.90;71.60
40085;DHT22;25786;51.504;7.344;2023-04-06T00:52:00;2.90;71.50
40085;DHT22;25786;51.504;7.344;2023-04-06T00:54:26;2.80;71.60
40085;DHT22;25786;51.504;7.344;2023-04-06T00:56:52;2.90;71.70
40085;DHT22;25786;51.504;7.344;2023-04-06T00:59:17;2.90;71.80
40085;DHT22;25786;51.504;7.344;2023-04-06T01:01:43;2.80;72.20
40085;DHT22;25786;51.504;7.344;2023-04-06T01:04:09;2.70;72.40
40085;DHT22;25786;51.504;7.344;2023-04-06T01:06:34;2.80;72.70
40085;DHT22;25786;51.504;7.344;2023-04-06T01:09:00;2.80;73.20
40085;DHT22;25786;51.504;7.344;2023-04-06T01:11:25;2.80;72.80
40085;DHT22;25786;51.504;7.344;2023-04-06T01:13:51;2.70;72.90
40085;DHT22;25786;51.504;7.344;2023-04-06T01:16:17;2.80;72.50
40085;DHT22;25786;51.504;7.344;2023-04-06T01:18:42;2.80;72.80
40085;DHT22;25786;51.504;7.344;2023-04-06T01:21:08;2.90;72.60
40085;DHT22;25786;51.504;7.344;2023-04-06T01:23:35;3.00;72.10
40085;DHT22;25786;51.504;7.344;2023-04-06T01:26:00;2.90;72.00
40085;DHT22;25786;51.504;7.344;2023-04-06T01:28:26;3.00;71.80
40085;DHT22;25786;51.504;7.344;2023-04-06T01:30:51;3.10;71.40
40085;DHT22;25786;51.504;7.344;2023-04-06T01:33:17;3.10;71.30
40085;DHT22;25786;51.504;7.344;2023-04-06T01:35:42;3.10;71.20
40085;DHT22;25786;51.504;7.344;2023-04-06T01:38:08;3.10;71.20
40085;DHT22;25786;51.504;7.344;2023-04-06T01:40:33;3.10;71.70
40085;DHT22;25786;51.504;7.344;2023-04-06T01:42:58;3.10;71.20
40085;DHT22;25786;51.504;7.344;2023-04-06T01:45:24;3.20;70.60
40085;DHT22;25786;51.504;7.344;2023-04-06T01:47:50;3.20;70.70
40085;DHT22;25786;51.504;7.344;2023-04-06T01:50:15;3.20;70.60
40085;DHT22;25786;51.504;7.344;2023-04-06T01:52:41;3.20;70.40
40085;DHT22;25786;51.504;7.344;2023-04-06T01:55:06;3.10;70.70
40085;DHT22;25786;51.504;7.344;2023-04-06T01:57:32;3.20;70.60
40085;DHT22;25786;51.504;7.344;2023-04-06T01:59:57;3.10;70.40
40085;DHT22;25786;51.504;7.344;2023-04-06T02:02:23;3.10;70.50
40085;DHT22;25786;51.504;7.344;2023-04-06T02:04:48;3.20;70.00
40085;DHT22;25786;51.504;7.344;2023-04-06T02:07:14;3.20;68.90
40085;DHT22;25786;51.504;7.344;2023-04-06T02:09:39;3.20;68.80
40085;DHT22;25786;51.504;7.344;2023-04-06T02:12:05;3.30;68.10
40085;DHT22;25786;51.504;7.344;2023-04-06T02:14:32;3.20;67.90
40085;DHT22;25786;51.504;7.344;2023-04-06T02:16:58;3.20;68.60
40085;DHT22;25786;51.504;7.344;2023-04-06T02:19:23;3.20;68.10
40085;DHT22;25786;51.504;7.344;2023-04-06T02:21:49;3.30;67.60
40085;DHT22;25786;51.504;7.344;2023-04-06T02:24:14;3.40;67.10
40085;DHT22;25786;51.504;7.344;2023-04-06T02:26:40;3.40;67.40
40085;DHT22;25786;51.504;7.344;2023-04-06T02:35:09;3.40;66.40
40085;DHT22;25786;51.504;7.344;2023-04-06T02:37:34;3.40;66.80
40085;DHT22;25786;51.504;7.344;2023-04-06T02:39:59;3.40;66.10
40085;DHT22;25786;51.504;7.344;2023-04-06T02:42:25;3.40;66.10
40085;DHT22;25786;51.504;7.344;2023-04-06T02:44:50;3.40;66.80
40085;DHT22;25786;51.504;7.344;2023-04-06T02:47:16;3.50;67.40
40085;DHT22;25786;51.504;7.344;2023-04-06T02:49:41;3.50;66.80
40085;DHT22;25786;51.504;7.344;2023-04-06T02:52:07;3.40;67.00
40085;DHT22;25786;51.504;7.344;2023-04-06T02:54:32;3.30;67.60
40085;DHT22;25786;51.504;7.344;2023-04-06T02:56:57;3.40;67.50
40085;DHT22;25786;51.504;7.344;2023-04-06T02:59:23;3.40;68.00
40085;DHT22;25786;51.504;7.344;2023-04-06T03:01:48;3.40;68.40
40085;DHT22;25786;51.504;7.344;2023-04-06T03:04:14;3.30;67.80
40085;DHT22;25786;51.504;7.344;2023-04-06T03:06:39;3.40;66.90
40085;DHT22;25786;51.504;7.344;2023-04-06T03:09:05;3.30;67.30
40085;DHT22;25786;51.504;7.344;2023-04-06T03:11:31;3.30;67.20
40085;DHT22;25786;51.504;7.344;2023-04-06T03:13:57;3.20;67.60
40085;DHT22;25786;51.504;7.344;2023-04-06T03:16:22;3.20;67.70
40085;DHT22;25786;51.504;7.344;2023-04-06T03:18:47;3.30;67.90
40085;DHT22;25786;51.504;7.344;2023-04-06T03:21:13;3.30;67.90
40085;DHT22;25786;51.504;7.344;2023-04-06T03:23:40;3.20;67.70
40085;DHT22;25786;51.504;7.344;2023-04-06T03:26:06;3.30;68.90
40085;DHT22;25786;51.504;7.344;2023-04-06T03:28:31;3.30;68.60
40085;DHT22;25786;51.504;7.344;2023-04-06T03:30:56;3.30;67.90
40085;DHT22;25786;51.504;7.344;2023-04-06T03:33:22;3.30;68.30
40085;DHT22;25786;51.504;7.344;2023-04-06T03:35:47;3.30;67.80
40085;DHT22;25786;51.504;7.344;2023-04-06T03:38:13;3.20;67.50
40085;DHT22;25786;51.504;7.344;2023-04-06T03:40:38;3.20;67.70
40085;DHT22;25786;51.504;7.344;2023-04-06T03:43:04;3.20;67.40
40085;DHT22;25786;51.504;7.344;2023-04-06T03:45:29;3.30;68.50
40085;DHT22;25786;51.504;7.344;2023-04-06T03:47:55;3.20;68.00
40085;DHT22;25786;51.504;7.344;2023-04-06T03:50:20;3.20;67.70
40085;DHT22;25786;51.504;7.344;2023-04-06T03:52:45;3.20;67.70
40085;DHT22;25786;51.504;7.344;2023-04-06T03:55:11;3.20;67.20
40085;DHT22;25786;51.504;7.344;2023-04-06T03:57:36;3.20;68.30
40085;DHT22;25786;51.504;7.344;2023-04-06T04:00:03;3.20;67.20
40085;DHT22;25786;51.504;7.344;2023-04-06T04:02:28;3.30;67.00
40085;DHT22;25786;51.504;7.344;2023-04-06T04:04:54;3.30;66.50
40085;DHT22;25786;51.504;7.344;2023-04-06T04:07:19;3.30;66.80
40085;DHT22;25786;51.504;7.344;2023-04-06T04:09:45;3.30;66.50
40085;DHT22;25786;51.504;7.344;2023-04-06T04:12:10;3.30;67.20
40085;DHT22;25786;51.504;7.344;2023-04-06T04:14:35;3.30;66.70
40085;DHT22;25786;51.504;7.344;2023-04-06T04:17:01;3.30;67.30
40085;DHT22;25786;51.504;7.344;2023-04-06T04:19:26;3.20;67.10
40085;DHT22;25786;51.504;7.344;2023-04-06T04:21:52;3.20;67.10
40085;DHT22;25786;51.504;7.344;2023-04-06T04:24:17;3.30;67.30
40085;DHT22;25786;51.504;7.344;2023-04-06T04:26:42;3.30;66.60
40085;DHT22;25786;51.504;7.344;2023-04-06T04:29:09;3.20;66.30
40085;DHT22;25786;51.504;7.344;2023-04-06T04:31:34;3.20;66.40
40085;DHT22;25786;51.504;7.344;2023-04-06T04:34:00;3.20;66.30
40085;DHT22;25786;51.504;7.344;2023-04-06T04:36:26;3.20;66.60
40085;DHT22;25786;51.504;7.344;2023-04-06T04:38:52;3.20;66.80
40085;DHT22;25786;51.504;7.344;2023-04-06T04:41:17;3.20;66.10
40085;DHT22;25786;51.504;7.344;2023-04-06T04:43:43;3.20;67.00
40085;DHT22;25786;51.504;7.344;2023-04-06T04:46:09;3.20;67.60
40085;DHT22;25786;51.504;7.344;2023-04-06T04:48:34;3.10;66.90
40085;DHT22;25786;51.504;7.344;2023-04-06T04:51:00;3.10;66.70
40085;DHT22;25786;51.504;7.344;2023-04-06T04:53:25;3.10;67.10
40085;DHT22;25786;51.504;7.344;2023-04-06T04:55:51;3.20;67.10
40085;DHT22;25786;51.504;7.344;2023-04-06T04:58:16;3.20;67.70
40085;DHT22;25786;51.504;7.344;2023-04-06T05:00:44;3.20;67.90
40085;DHT22;25786;51.504;7.344;2023-04-06T05:03:18;3.20;67.60
40085;DHT22;25786;51.504;7.344;2023-04-06T05:05:44;3.10;67.70
40085;DHT22;25786;51.504;7.344;2023-04-06T05:08:10;3.20;68.30
40085;DHT22;25786;51.504;7.344;2023-04-06T05:10:35;3.20;67.80
40085;DHT22;25786;51.504;7.344;2023-04-06T05:13:01;3.30;68.10
40085;DHT22;25786;51.504;7.344;2023-04-06T05:15:26;3.20;68.10
40085;DHT22;25786;51.504;7.344;2023-04-06T05:17:52;3.30;67.90
40085;DHT22;25786;51.504;7.344;2023-04-06T05:20:17;3.20;66.60
40085;DHT22;25786;51.504;7.344;2023-04-06T05:22:42;3.30;66.50
40085;DHT22;25786;51.504;7.344;2023-04-06T05:25:08;3.40;67.70
40085;DHT22;25786;51.504;7.344;2023-04-06T05:27:33;3.40;67.40
40085;DHT22;25786;51.504;7.344;2023-04-06T05:29:59;3.40;66.30
40085;DHT22;25786;51.504;7.344;2023-04-06T05:32:25;3.50;65.70
40085;DHT22;25786;51.504;7.344;2023-04-06T05:34:52;3.50;65.90
40085;DHT22;25786;51.504;7.344;2023-04-06T05:37:17;3.50;64.80
40085;DHT22;25786;51.504;7.344;2023-04-06T05:39:46;3.60;65.20
40085;DHT22;25786;51.504;7.344;2023-04-06T05:42:11;3.60;63.90
40085;DHT22;25786;51.504;7.344;2023-04-06T05:44:37;3.70;63.60
40085;DHT22;25786;51.504;7.344;2023-04-06T05:47:03;3.80;63.30
40085;DHT22;25786;51.504;7.344;2023-04-06T05:49:28;3.90;63.30
40085;DHT22;25786;51.504;7.344;2023-04-06T05:51:54;3.80;62.80
40085;DHT22;25786;51.504;7.344;2023-04-06T05:54:20;3.90;62.80
40085;DHT22;25786;51.504;7.344;2023-04-06T05:56:48;4.00;62.10
40085;DHT22;25786;51.504;7.344;2023-04-06T05:59:13;4.10;61.20
40085;DHT22;25786;51.504;7.344;2023-04-06T06:01:41;4.10;61.80
40085;DHT22;25786;51.504;7.344;2023-04-06T06:04:07;4.30;60.50
40085;DHT22;25786;51.504;7.344;2023-04-06T06:06:32;4.30;60.80
40085;DHT22;25786;51.504;7.344;2023-04-06T06:09:04;4.30;60.00
40085;DHT22;25786;51.504;7.344;2023-04-06T06:14:21;4.50;60.30
40085;DHT22;25786;51.504;7.344;2023-04-06T06:16:50;4.60;59.90
40085;DHT22;25786;51.504;7.344;2023-04-06T06:25:23;4.80;58.50
40085;DHT22;25786;51.504;7.344;2023-04-06T06:34:27;5.20;57.50
40085;DHT22;25786;51.504;7.344;2023-04-06T06:37:05;5.30;58.00
40085;DHT22;25786;51.504;7.344;2023-04-06T06:39:52;5.50;56.60
40085;DHT22;25786;51.504;7.344;2023-04-06T06:42:26;5.40;56.00
40085;DHT22;25786;51.504;7.344;2023-04-06T06:46:09;5.30;56.80
40085;DHT22;25786;51.504;7.344;2023-04-06T06:48:07;5.50;56.00
40085;DHT22;25786;51.504;7.344;2023-04-06T06:50:41;5.60;55.90
40085;DHT22;25786;51.504;7.344;2023-04-06T06:56:35;5.80;56.10
40085;DHT22;25786;51.504;7.344;2023-04-06T06:59:05;5.90;55.10
40085;DHT22;25786;51.504;7.344;2023-04-06T07:01:42;6.10;54.20
40085;DHT22;25786;51.504;7.344;2023-04-06T07:07:14;6.10;54.10
40085;DHT22;25786;51.504;7.344;2023-04-06T07:09:58;6.30;53.30
40085;DHT22;25786;51.504;7.344;2023-04-06T07:15:34;6.50;52.60
40085;DHT22;25786;51.504;7.344;2023-04-06T07:20:56;6.80;51.90
40085;DHT22;25786;51.504;7.344;2023-04-06T07:23:27;6.80;51.90
40085;DHT22;25786;51.504;7.344;2023-04-06T07:29:00;6.90;51.30
40085;DHT22;25786;51.504;7.344;2023-04-06T07:31:28;6.90;52.30
40085;DHT22;25786;51.504;7.344;2023-04-06T07:36:55;7.00;51.50
40085;DHT22;25786;51.504;7.344;2023-04-06T07:42:51;7.00;51.50
40085;DHT22;25786;51.504;7.344;2023-04-06T07:45:36;7.10;51.40
40085;DHT22;25786;51.504;7.344;2023-04-06T07:48:27;7.20;50.40
40085;DHT22;25786;51.504;7.344;2023-04-06T07:51:49;7.20;50.90
40085;DHT22;25786;51.504;7.344;2023-04-06T07:54:48;7.30;50.70
40085;DHT22;25786;51.504;7.344;2023-04-06T08:01:03;7.50;51.40
40085;DHT22;25786;51.504;7.344;2023-04-06T08:03:40;7.60;51.50
40085;DHT22;25786;51.504;7.344;2023-04-06T08:06:08;7.60;51.40
40085;DHT22;25786;51.504;7.344;2023-04-06T08:08:54;7.80;51.10
40085;DHT22;25786;51.504;7.344;2023-04-06T08:11:20;8.00;50.80
40085;DHT22;25786;51.504;7.344;2023-04-06T08:13:45;8.00;50.20
40085;DHT22;25786;51.504;7.344;2023-04-06T08:16:11;8.10;50.70
40085;DHT22;25786;51.504;7.344;2023-04-06T08:18:36;8.30;50.40
40085;DHT22;25786;51.504;7.344;2023-04-06T08:21:02;8.20;49.70
40085;DHT22;25786;51.504;7.344;2023-04-06T08:23:27;8.30;49.70
40085;DHT22;25786;51.504;7.344;2023-04-06T08:25:53;8.60;49.20
40085;DHT22;25786;51.504;7.344;2023-04-06T08:28:19;8.50;49.90
40085;DHT22;25786;51.504;7.344;2023-04-06T08:30:45;8.60;49.80
40085;DHT22;25786;51.504;7.344;2023-04-06T08:33:10;8.60;49.30
40085;DHT22;25786;51.504;7.344;2023-04-06T08:35:36;8.70;49.70
40085;DHT22;25786;51.504;7.344;2023-04-06T08:38:02;8.80;49.70
40085;DHT22;25786;51.504;7.344;2023-04-06T08:40:27;8.80;50.60
40085;DHT22;25786;51.504;7.344;2023-04-06T08:42:54;8.90;50.60
40085;DHT22;25786;51.504;7.344;2023-04-06T08:45:19;9.00;50.00
40085;DHT22;25786;51.504;7.344;2023-04-06T08:47:55;9.10;50.00
40085;DHT22;25786;51.504;7.344;2023-04-06T08:50:22;9.40;48.20
40085;DHT22;25786;51.504;7.344;2023-04-06T08:52:49;9.40;48.30
40085;DHT22;25786;51.504;7.344;2023-04-06T08:55:14;9.50;48.00
40085;DHT22;25786;51.504;7.344;2023-04-06T08:57:40;9.60;48.70
40085;DHT22;25786;51.504;7.344;2023-04-06T09:00:07;9.70;48.20
40085;DHT22;25786;51.504;7.344;2023-04-06T09:02:33;9.80;47.90
40085;DHT22;25786;51.504;7.344;2023-04-06T09:04:58;10.20;47.30
40085;DHT22;25786;51.504;7.344;2023-04-06T09:07:24;10.30;47.20
40085;DHT22;25786;51.504;7.344;2023-04-06T09:09:49;10.50;44.20
40085;DHT22;25786;51.504;7.344;2023-04-06T09:14:48;10.80;43.30
40085;DHT22;25786;51.504;7.344;2023-04-06T09:17:27;11.00;44.80
40085;DHT22;25786;51.504;7.344;2023-04-06T09:19:52;11.10;44.50
40085;DHT22;25786;51.504;7.344;2023-04-06T09:22:18;11.00;42.90
40085;DHT22;25786;51.504;7.344;2023-04-06T09:24:45;10.80;43.40
40085;DHT22;25786;51.504;7.344;2023-04-06T09:27:11;10.80;44.00
40085;DHT22;25786;51.504;7.344;2023-04-06T09:29:36;11.20;43.40
40085;DHT22;25786;51.504;7.344;2023-04-06T09:32:05;11.30;43.40
40085;DHT22;25786;51.504;7.344;2023-04-06T09:34:32;11.40;42.80
40085;DHT22;25786;51.504;7.344;2023-04-06T09:36:57;11.70;42.50
40085;DHT22;25786;51.504;7.344;2023-04-06T09:39:23;11.80;41.40
40085;DHT22;25786;51.504;7.344;2023-04-06T09:41:52;12.00;42.00
40085;DHT22;25786;51.504;7.344;2023-04-06T09:44:19;12.10;40.40
40085;DHT22;25786;51.504;7.344;2023-04-06T09:46:45;12.20;40.40
40085;DHT22;25786;51.504;7.344;2023-04-06T09:49:13;12.30;40.40
40085;DHT22;25786;51.504;7.344;2023-04-06T09:51:40;12.30;38.90
40085;DHT22;25786;51.504;7.344;2023-04-06T09:57:24;12.50;39.70
40085;DHT22;25786;51.504;7.344;2023-04-06T09:59:56;12.50;40.00
40085;DHT22;25786;51.504;7.344;2023-04-06T10:05:16;12.30;38.70
40085;DHT22;25786;51.504;7.344;2023-04-06T10:07:39;12.20;39.90
40085;DHT22;25786;51.504;7.344;2023-04-06T10:10:05;12.10;39.90
40085;DHT22;25786;51.504;7.344;2023-04-06T10:12:31;12.10;39.80
40085;DHT22;25786;51.504;7.344;2023-04-06T10:14:56;12.10;40.10
40085;DHT22;25786;51.504;7.344;2023-04-06T10:17:22;12.20;40.40
40085;DHT22;25786;51.504;7.344;2023-04-06T10:19:55;12.30;40.00
40085;DHT22;25786;51.504;7.344;2023-04-06T10:22:26;12.30;40.60
40085;DHT22;25786;51.504;7.344;2023-04-06T10:24:53;12.40;40.20
40085;DHT22;25786;51.504;7.344;2023-04-06T10:27:27;12.40;41.50
40085;DHT22;25786;51.504;7.344;2023-04-06T10:29:52;12.60;41.50
40085;DHT22;25786;51.504;7.344;2023-04-06T10:32:17;12.60;40.70
40085;DHT22;25786;51.504;7.344;2023-04-06T10:34:43;12.50;40.80
40085;DHT22;25786;51.504;7.344;2023-04-06T10:37:15;12.50;39.80
40085;DHT22;25786;51.504;7.344;2023-04-06T10:39:53;12.60;40.20
40085;DHT22;25786;51.504;7.344;2023-04-06T10:42:24;12.70;39.70
40085;DHT22;25786;51.504;7.344;2023-04-06T10:44:49;12.70;39.60
40085;DHT22;25786;51.504;7.344;2023-04-06T10:47:16;12.80;40.80
40085;DHT22;25786;51.504;7.344;2023-04-06T10:49:43;12.90;40.10
40085;DHT22;25786;51.504;7.344;2023-04-06T10:52:08;13.10;39.90
40085;DHT22;25786;51.504;7.344;2023-04-06T10:54:34;13.20;40.30
40085;DHT22;25786;51.504;7.344;2023-04-06T10:57:03;13.20;39.70
40085;DHT22;25786;51.504;7.344;2023-04-06T10:59:29;13.30;39.50
40085;DHT22;25786;51.504;7.344;2023-04-06T11:01:54;13.50;40.50
40085;DHT22;25786;51.504;7.344;2023-04-06T11:04:21;13.60;38.70
40085;DHT22;25786;51.504;7.344;2023-04-06T11:06:47;13.60;38.50
40085;DHT22;25786;51.504;7.344;2023-04-06T11:09:26;13.40;37.10
40085;DHT22;25786;51.504;7.344;2023-04-06T11:11:51;13.30;36.10
40085;DHT22;25786;51.504;7.344;2023-04-06T11:14:17;13.40;37.10
40085;DHT22;25786;51.504;7.344;2023-04-06T11:16:43;13.60;36.60
40085;DHT22;25786;51.504;7.344;2023-04-06T11:19:11;13.60;36.90
40085;DHT22;25786;51.504;7.344;2023-04-06T11:21:39;13.60;37.10
40085;DHT22;25786;51.504;7.344;2023-04-06T11:24:14;13.70;35.80
40085;DHT22;25786;51.504;7.344;2023-04-06T11:29:09;13.70;35.40
40085;DHT22;25786;51.504;7.344;2023-04-06T11:31:54;13.70;34.50
40085;DHT22;25786;51.504;7.344;2023-04-06T11:34:23;13.60;35.90
40085;DHT22;25786;51.504;7.344;2023-04-06T11:36:53;13.70;36.70
40085;DHT22;25786;51.504;7.344;2023-04-06T11:39:20;13.80;36.30
40085;DHT22;25786;51.504;7.344;2023-04-06T11:41:49;14.00;35.80
40085;DHT22;25786;51.504;7.344;2023-04-06T11:44:15;14.00;36.10
40085;DHT22;25786;51.504;7.344;2023-04-06T11:46:40;14.10;36.70
40085;DHT22;25786;51.504;7.344;2023-04-06T11:49:06;14.10;36.30
40085;DHT22;25786;51.504;7.344;2023-04-06T11:51:35;14.10;37.90
40085;DHT22;25786;51.504;7.344;2023-04-06T11:54:00;14.10;37.80
40085;DHT22;25786;51.504;7.344;2023-04-06T11:56:26;14.10;37.60
40085;DHT22;25786;51.504;7.344;2023-04-06T11:58:54;14.30;37.50
40085;DHT22;25786;51.504;7.344;2023-04-06T12:01:19;14.20;37.80
40085;DHT22;25786;51.504;7.344;2023-04-06T12:03:45;14.40;37.80
40085;DHT22;25786;51.504;7.344;2023-04-06T12:06:10;14.50;37.00
40085;DHT22;25786;51.504;7.344;2023-04-06T12:08:36;14.60;37.50
40085;DHT22;25786;51.504;7.344;2023-04-06T12:11:01;14.50;37.30
40085;DHT22;25786;51.504;7.344;2023-04-06T12:13:27;14.40;36.80
40085;DHT22;25786;51.504;7.344;2023-04-06T12:15:53;14.50;37.20
40085;DHT22;25786;51.504;7.344;2023-04-06T12:18:18;14.40;38.00
40085;DHT22;25786;51.504;7.344;2023-04-06T12:20:44;14.30;37.80
40085;DHT22;25786;51.504;7.344;2023-04-06T12:23:09;14.40;38.00
40085;DHT22;25786;51.504;7.344;2023-04-06T12:25:34;14.30;38.70
40085;DHT22;25786;51.504;7.344;2023-04-06T12:28:00;14.30;38.10
40085;DHT22;25786;51.504;7.344;2023-04-06T12:30:26;14.40;38.10
40085;DHT22;25786;51.504;7.344;2023-04-06T12:32:51;14.50;38.70
40085;DHT22;25786;51.504;7.344;2023-04-06T12:35:17;14.60;39.10
40085;DHT22;25786;51.504;7.344;2023-04-06T12:37:42;14.70;38.50
40085;DHT22;25786;51.504;7.344;2023-04-06T12:40:08;14.70;37.80
40085;DHT22;25786;51.504;7.344;2023-04-06T12:42:36;14.70;37.50
40085;DHT22;25786;51.504;7.344;2023-04-06T12:45:01;14.40;39.00
40085;DHT22;25786;51.504;7.344;2023-04-06T12:47:27;14.50;38.30
40085;DHT22;25786;51.504;7.344;2023-04-06T12:49:59;14.50;39.00
40085;DHT22;25786;51.504;7.344;2023-04-06T12:52:24;14.50;38.50
40085;DHT22;25786;51.504;7.344;2023-04-06T12:54:50;14.60;39.50
40085;DHT22;25786;51.504;7.344;2023-04-06T12:57:16;14.60;39.70
40085;DHT22;25786;51.504;7.344;2023-04-06T12:59:44;14.60;39.50
40085;DHT22;25786;51.504;7.344;2023-04-06T13:02:10;14.70;39.40
40085;DHT22;25786;51.504;7.344;2023-04-06T13:04:35;14.70;39.40
40085;DHT22;25786;51.504;7.344;2023-04-06T13:07:01;14.80;38.90
40085;DHT22;25786;51.504;7.344;2023-04-06T13:09:26;15.00;39.00
40085;DHT22;25786;51.504;7.344;2023-04-06T13:11:52;15.10;39.50
40085;DHT22;25786;51.504;7.344;2023-04-06T13:14:17;14.80;40.40
40085;DHT22;25786;51.504;7.344;2023-04-06T13:16:43;15.00;39.70
40085;DHT22;25786;51.504;7.344;2023-04-06T13:19:08;15.00;39.60
40085;DHT22;25786;51.504;7.344;2023-04-06T13:21:34;15.00;39.90
40085;DHT22;25786;51.504;7.344;2023-04-06T13:23:59;14.80;39.40
40085;DHT22;25786;51.504;7.344;2023-04-06T13:26:25;14.70;38.60
40085;DHT22;25786;51.504;7.344;2023-04-06T13:28:51;14.60;39.40
40085;DHT22;25786;51.504;7.344;2023-04-06T13:31:16;14.60;40.10
40085;DHT22;25786;51.504;7.344;2023-04-06T13:33:41;14.60;40.00
40085;DHT22;25786;51.504;7.344;2023-04-06T13:36:07;14.50;40.50
40085;DHT22;25786;51.504;7.344;2023-04-06T13:38:33;14.40;41.50
40085;DHT22;25786;51.504;7.344;2023-04-06T13:40:59;14.30;41.60
40085;DHT22;25786;51.504;7.344;2023-04-06T13:43:24;14.40;41.30
40085;DHT22;25786;51.504;7.344;2023-04-06T13:45:53;14.30;40.90
40085;DHT22;25786;51.504;7.344;2023-04-06T13:48:20;14.20;41.40
40085;DHT22;25786;51.504;7.344;2023-04-06T13:50:46;14.20;41.40
40085;DHT22;25786;51.504;7.344;2023-04-06T13:53:11;14.10;42.40
40085;DHT22;25786;51.504;7.344;2023-04-06T13:55:37;14.10;41.90
40085;DHT22;25786;51.504;7.344;2023-04-06T13:58:02;14.00;43.40
40085;DHT22;25786;51.504;7.344;2023-04-06T14:00:27;13.80;42.50
40085;DHT22;25786;51.504;7.344;2023-04-06T14:02:53;13.90;43.00
40085;DHT22;25786;51.504;7.344;2023-04-06T14:05:19;13.80;43.20
40085;DHT22;25786;51.504;7.344;2023-04-06T14:07:45;13.80;42.20
40085;DHT22;25786;51.504;7.344;2023-04-06T14:10:11;13.60;43.70
40085;DHT22;25786;51.504;7.344;2023-04-06T14:12:42;13.60;44.30
40085;DHT22;25786;51.504;7.344;2023-04-06T14:15:09;13.60;43.40
40085;DHT22;25786;51.504;7.344;2023-04-06T14:17:34;13.60;43.60
40085;DHT22;25786;51.504;7.344;2023-04-06T14:20:00;13.60;44.30
40085;DHT22;25786;51.504;7.344;2023-04-06T14:22:26;13.60;44.50
40085;DHT22;25786;51.504;7.344;2023-04-06T14:24:54;13.60;44.60
40085;DHT22;25786;51.504;7.344;2023-04-06T14:27:20;13.60;44.60
40085;DHT22;25786;51.504;7.344;2023-04-06T14:29:47;13.40;45.00
40085;DHT22;25786;51.504;7.344;2023-04-06T14:32:12;13.50;45.20
40085;DHT22;25786;51.504;7.344;2023-04-06T14:34:38;13.50;45.90
40085;DHT22;25786;51.504;7.344;2023-04-06T14:37:03;13.40;46.40
40085;DHT22;25786;51.504;7.344;2023-04-06T14:39:29;13.30;47.10
40085;DHT22;25786;51.504;7.344;2023-04-06T14:41:54;13.30;48.00
40085;DHT22;25786;51.504;7.344;2023-04-06T14:44:20;13.50;45.50
40085;DHT22;25786;51.504;7.344;2023-04-06T14:46:46;13.50;45.20
40085;DHT22;25786;51.504;7.344;2023-04-06T14:49:11;13.50;45.00
40085;DHT22;25786;51.504;7.344;2023-04-06T14:51:37;13.40;45.20
40085;DHT22;25786;51.504;7.344;2023-04-06T14:54:03;13.30;47.10
40085;DHT22;25786;51.504;7.344;2023-04-06T14:56:28;13.10;48.30
40085;DHT22;25786;51.504;7.344;2023-04-06T14:58:56;13.00;49.00
40085;DHT22;25786;51.504;7.344;2023-04-06T15:01:34;12.90;49.00
40085;DHT22;25786;51.504;7.344;2023-04-06T15:04:02;12.80;50.40
40085;DHT22;25786;51.504;7.344;2023-04-06T15:06:31;12.70;51.80
40085;DHT22;25786;51.504;7.344;2023-04-06T15:08:57;12.60;53.00
40085;DHT22;25786;51.504;7.344;2023-04-06T15:11:22;12.50;52.40
40085;DHT22;25786;51.504;7.344;2023-04-06T15:13:48;12.50;53.60
40085;DHT22;25786;51.504;7.344;2023-04-06T15:16:13;12.40;54.10
40085;DHT22;25786;51.504;7.344;2023-04-06T15:18:39;12.40;55.00
40085;DHT22;25786;51.504;7.344;2023-04-06T15:21:05;12.30;54.90
40085;DHT22;25786;51.504;7.344;2023-04-06T15:23:31;12.30;54.40
40085;DHT22;25786;51.504;7.344;2023-04-06T15:25:58;12.30;54.30
40085;DHT22;25786;51.504;7.344;2023-04-06T15:28:23;12.20;54.10
40085;DHT22;25786;51.504;7.344;2023-04-06T15:30:49;12.20;54.70
40085;DHT22;25786;51.504;7.344;2023-04-06T15:33:19;12.30;55.50
40085;DHT22;25786;51.504;7.344;2023-04-06T15:35:47;12.20;55.90
40085;DHT22;25786;51.504;7.344;2023-04-06T15:38:13;12.30;56.30
40085;DHT22;25786;51.504;7.344;2023-04-06T15:40:43;12.10;57.10
40085;DHT22;25786;51.504;7.344;2023-04-06T15:43:12;12.10;58.30
40085;DHT22;25786;51.504;7.344;2023-04-06T15:45:38;11.90;59.10
40085;DHT22;25786;51.504;7.344;2023-04-06T15:48:04;11.90;59.60
40085;DHT22;25786;51.504;7.344;2023-04-06T15:50:29;11.90;59.20
40085;DHT22;25786;51.504;7.344;2023-04-06T15:52:58;11.90;57.80
40085;DHT22;25786;51.504;7.344;2023-04-06T15:55:25;11.90;58.00
40085;DHT22;25786;51.504;7.344;2023-04-06T15:57:51;11.90;58.90
40085;DHT22;25786;51.504;7.344;2023-04-06T16:00:22;11.90;59.30
40085;DHT22;25786;51.504;7.344;2023-04-06T16:06:07;11.80;60.50
40085;DHT22;25786;51.504;7.344;2023-04-06T16:08:42;11.80;61.00
40085;DHT22;25786;51.504;7.344;2023-04-06T16:11:08;11.80;60.80
40085;DHT22;25786;51.504;7.344;2023-04-06T16:13:34;11.70;61.90
40085;DHT22;25786;51.504;7.344;2023-04-06T16:16:00;11.60;63.60
40085;DHT22;25786;51.504;7.344;2023-04-06T16:18:27;11.60;63.80
40085;DHT22;25786;51.504;7.344;2023-04-06T16:20:52;11.40;63.00
40085;DHT22;25786;51.504;7.344;2023-04-06T16:23:18;11.40;61.70
40085;DHT22;25786;51.504;7.344;2023-04-06T16:25:44;11.40;61.30
40085;DHT22;25786;51.504;7.344;2023-04-06T16:28:10;11.30;61.20
40085;DHT22;25786;51.504;7.344;2023-04-06T16:30:36;11.30;63.00
40085;DHT22;25786;51.504;7.344;2023-04-06T16:33:02;11.20;63.10
40085;DHT22;25786;51.504;7.344;2023-04-06T16:35:27;11.10;63.50
40085;DHT22;25786;51.504;7.344;2023-04-06T16:37:53;11.20;63.60
40085;DHT22;25786;51.504;7.344;2023-04-06T16:40:18;11.10;62.30